createdAt,value
2023-05-10T00:00:57.234Z,949.53
2023-05-10T00:03:57.851Z,949.42
2023-05-10T00:06:57.326Z,949.38
2023-05-10T00:09:58.043Z,949.39
2023-05-10T00:12:57.341Z,949.53
2023-05-10T00:15:57.116Z,949.38
2023-05-10T00:18:57.251Z,949.5
2023-05-10T00:21:56.941Z,949.41
2023-05-10T00:24:56.791Z,949.41
2023-05-10T00:27:57.268Z,949.31
2023-05-10T00:30:57.148Z,949.3
2023-05-10T00:33:57.208Z,949.39
2023-05-10T00:36:56.779Z,949.28
2023-05-10T00:39:56.842Z,949.27
2023-05-10T00:42:57.361Z,949.34
2023-05-10T00:45:57.660Z,949.47
2023-05-10T00:48:57.154Z,949.38
2023-05-10T00:51:57.507Z,949.49
2023-05-10T00:54:56.849Z,949.28
2023-05-10T00:57:57.500Z,949.46
2023-05-10T01:00:57.701Z,949.34
2023-05-10T01:03:57.157Z,949.34
2023-05-10T01:07:02.583Z,949.4
2023-05-10T01:10:07.584Z,949.46
2023-05-10T01:13:12.339Z,949.34
2023-05-10T01:15:57.986Z,949.5
2023-05-10T01:18:57.349Z,949.41
2023-05-10T01:21:57.939Z,949.47
2023-05-10T01:24:57.477Z,949.52
2023-05-10T01:27:56.952Z,949.53
2023-05-10T01:30:57.636Z,949.46
2023-05-10T01:33:57.921Z,949.52
2023-05-10T01:36:57.354Z,949.55
2023-05-10T01:39:57.617Z,949.52
2023-05-10T01:42:57.957Z,949.59
2023-05-10T01:45:56.865Z,949.62
2023-05-10T01:48:57.268Z,949.57
2023-05-10T01:51:57.474Z,949.68
2023-05-10T01:54:57.197Z,949.66
2023-05-10T01:57:57.252Z,949.62
2023-05-10T02:00:58.119Z,949.58
2023-05-10T02:03:57.008Z,949.59
2023-05-10T02:06:57.540Z,949.68
2023-05-10T02:09:57.194Z,949.67
2023-05-10T02:12:56.800Z,949.65
2023-05-10T02:15:56.898Z,949.68
2023-05-10T02:18:57.337Z,949.86
2023-05-10T02:21:57.523Z,949.78
2023-05-10T02:24:57.950Z,949.87
2023-05-10T02:27:57.383Z,949.9
2023-05-10T02:30:57.155Z,949.84
2023-05-10T02:33:57.372Z,949.83
2023-05-10T02:36:57.457Z,949.93
2023-05-10T02:39:58.081Z,949.89
2023-05-10T02:42:57.569Z,949.99
2023-05-10T02:45:57.188Z,950.06
2023-05-10T02:49:02.132Z,950.02
2023-05-10T02:51:57.055Z,949.97
2023-05-10T02:54:57.028Z,950.14
2023-05-10T02:57:57.582Z,950.1
2023-05-10T03:00:57.092Z,950.09
2023-05-10T03:03:57.766Z,950.13
2023-05-10T03:06:57.485Z,950.13
2023-05-10T03:09:57.717Z,950.18
2023-05-10T03:12:56.791Z,950.26
2023-05-10T03:15:57.027Z,950.14
2023-05-10T03:18:57.724Z,950.17
2023-05-10T03:21:57.426Z,950.24
2023-05-10T03:24:57.195Z,950.23
2023-05-10T03:27:57.460Z,950.22
2023-05-10T03:30:57.709Z,950.23
2023-05-10T03:34:00.636Z,950.26
2023-05-10T03:36:56.961Z,950.19
2023-05-10T03:39:56.663Z,950.2
2023-05-10T03:42:57.565Z,950.3
2023-05-10T03:45:57.169Z,950.28
2023-05-10T03:48:56.966Z,950.46
2023-05-10T03:51:57.625Z,950.44
2023-05-10T03:54:57.197Z,950.49
2023-05-10T03:57:57.276Z,950.55
2023-05-10T04:00:57.876Z,950.54
2023-05-10T04:03:57.354Z,950.51
2023-05-10T04:06:57.358Z,950.54
2023-05-10T04:09:56.793Z,950.59
2023-05-10T04:12:56.808Z,950.48
2023-05-10T04:15:56.870Z,950.56
2023-05-10T04:18:57.234Z,950.57
2023-05-10T04:21:57.614Z,950.57
2023-05-10T04:24:57.650Z,950.54
2023-05-10T04:27:57.612Z,950.59
2023-05-10T04:30:57.073Z,950.57
2023-05-10T04:33:57.354Z,950.67
2023-05-10T04:36:59.618Z,950.67
2023-05-10T04:39:57.405Z,950.56
2023-05-10T04:42:56.826Z,950.56
2023-05-10T04:45:57.552Z,950.6
2023-05-10T04:48:57.477Z,950.63
2023-05-10T04:51:57.401Z,950.62
2023-05-10T04:54:57.195Z,950.63
2023-05-10T04:57:57.640Z,950.66
2023-05-10T05:00:57.548Z,950.73
2023-05-10T05:03:57.891Z,950.72
2023-05-10T05:06:57.184Z,950.75
2023-05-10T05:09:57.392Z,950.75
2023-05-10T05:12:58.016Z,950.85
2023-05-10T05:15:57.916Z,950.76
2023-05-10T05:18:58.014Z,950.78
2023-05-10T05:21:57.102Z,950.91
2023-05-10T05:24:57.486Z,950.84
2023-05-10T05:27:56.945Z,950.84
2023-05-10T05:30:57.757Z,950.86
2023-05-10T05:33:57.662Z,950.86
2023-05-10T05:36:56.801Z,950.89
2023-05-10T05:39:57.614Z,950.9
2023-05-10T05:42:57.469Z,950.87
2023-05-10T05:45:58.957Z,950.9
2023-05-10T05:48:58.084Z,950.95
2023-05-10T05:51:57.575Z,950.98
2023-05-10T05:54:57.140Z,951.02
2023-05-10T05:57:57.435Z,951.03
2023-05-10T06:00:57.482Z,951.08
2023-05-10T06:03:57.845Z,951.12
2023-05-10T06:06:57.219Z,951.19
2023-05-10T06:09:57.688Z,951.18
2023-05-10T06:12:57.235Z,951.15
2023-05-10T06:15:58.027Z,951.24
2023-05-10T06:18:57.367Z,951.18
2023-05-10T06:21:57.538Z,951.17
2023-05-10T06:24:57.838Z,951.2
2023-05-10T06:27:57.516Z,951.24
2023-05-10T06:30:57.919Z,951.25
2023-05-10T06:33:57.195Z,951.31
2023-05-10T06:36:57.985Z,951.34
2023-05-10T06:39:57.834Z,951.34
2023-05-10T06:42:57.431Z,951.41
2023-05-10T06:45:57.459Z,951.46
2023-05-10T06:48:56.938Z,951.37
2023-05-10T06:51:57.913Z,951.46
2023-05-10T06:54:57.547Z,951.5
2023-05-10T06:57:57.427Z,951.4
2023-05-10T07:00:57.902Z,951.49
2023-05-10T07:03:57.062Z,951.53
2023-05-10T07:06:57.570Z,951.57
2023-05-10T07:09:57.397Z,951.53
2023-05-10T07:12:56.691Z,951.57
2023-05-10T07:15:57.335Z,951.59
2023-05-10T07:18:57.169Z,951.56
2023-05-10T07:21:57.963Z,951.67
2023-05-10T07:24:57.302Z,951.76
2023-05-10T07:27:57.126Z,951.73
2023-05-10T07:30:57.181Z,951.62
2023-05-10T07:33:57.887Z,951.7
2023-05-10T07:36:57.689Z,951.71
2023-05-10T07:39:57.360Z,951.73
2023-05-10T07:42:57.168Z,951.78
2023-05-10T07:45:57.253Z,951.73
2023-05-10T07:48:57.489Z,951.74
2023-05-10T07:51:57.109Z,951.71
2023-05-10T07:54:57.066Z,951.75
2023-05-10T07:57:56.925Z,951.82
2023-05-10T08:00:58.091Z,951.84
2023-05-10T08:03:57.214Z,951.82
2023-05-10T08:06:57.606Z,951.74
2023-05-10T08:09:56.683Z,951.72
2023-05-10T08:12:57.612Z,951.69
2023-05-10T08:15:57.574Z,951.75
2023-05-10T08:18:57.714Z,951.79
2023-05-10T08:21:56.588Z,951.76
2023-05-10T08:24:57.340Z,951.79
2023-05-10T08:27:57.023Z,951.79
2023-05-10T08:30:57.302Z,951.84
2023-05-10T08:33:57.408Z,951.79
2023-05-10T08:36:57.297Z,951.94
2023-05-10T08:39:57.400Z,951.95
2023-05-10T08:42:57.729Z,952.03
2023-05-10T08:45:57.470Z,952.06
2023-05-10T08:48:57.053Z,952.06
2023-05-10T08:51:57.878Z,952.11
2023-05-10T08:54:57.059Z,952.21
2023-05-10T08:57:57.608Z,952.08
2023-05-10T09:00:57.961Z,952.07
2023-05-10T09:03:57.922Z,952.15
2023-05-10T09:06:57.526Z,952.22
2023-05-10T09:09:57.717Z,952.27
2023-05-10T09:16:02.072Z,952.34
2023-05-10T09:18:56.757Z,952.31
2023-05-10T09:21:57.469Z,952.4
2023-05-10T09:24:57.358Z,952.41
2023-05-10T09:27:57.474Z,952.49
2023-05-10T09:30:58.219Z,952.39
2023-05-10T09:33:56.956Z,952.56
2023-05-10T09:36:57.869Z,952.6
2023-05-10T09:39:57.680Z,952.5
2023-05-10T09:42:57.722Z,952.52
2023-05-10T09:45:57.428Z,952.49
2023-05-10T09:48:57.445Z,952.54
2023-05-10T09:51:57.247Z,952.57
2023-05-10T09:54:57.126Z,952.57
2023-05-10T09:57:57.066Z,952.53
2023-05-10T10:00:57.176Z,952.39
2023-05-10T10:03:57.666Z,952.42
2023-05-10T10:06:57.353Z,952.38
2023-05-10T10:09:57.030Z,952.45
2023-05-10T10:12:57.726Z,952.38
2023-05-10T10:15:57.196Z,952.5
2023-05-10T10:18:57.528Z,952.4
2023-05-10T10:21:57.581Z,952.46
2023-05-10T10:24:57.720Z,952.43
2023-05-10T10:27:57.616Z,952.41
2023-05-10T10:30:57.615Z,952.43
2023-05-10T10:33:57.798Z,952.36
2023-05-10T10:36:57.669Z,952.31
2023-05-10T10:39:57.027Z,952.33
2023-05-10T10:42:57.588Z,952.3
2023-05-10T10:45:57.809Z,952.37
2023-05-10T10:48:57.038Z,952.31
2023-05-10T10:51:56.750Z,952.24
2023-05-10T10:54:58.227Z,952.25
2023-05-10T10:57:57.624Z,952.26
2023-05-10T11:00:57.909Z,952.35
2023-05-10T11:04:16.491Z,952.2
2023-05-10T11:06:57.379Z,952.23
2023-05-10T11:09:57.909Z,952.24
2023-05-10T11:12:57.567Z,952.22
2023-05-10T11:15:57.706Z,952.25
2023-05-10T11:18:57.138Z,952.22
2023-05-10T11:21:56.924Z,952.29
2023-05-10T11:24:57.525Z,952.32
2023-05-10T11:27:56.826Z,952.34
2023-05-10T11:30:57.947Z,952.34
2023-05-10T11:33:57.695Z,952.39
2023-05-10T11:36:57.451Z,952.32
2023-05-10T11:39:57.433Z,952.42
2023-05-10T11:42:56.763Z,952.41
2023-05-10T11:45:57.964Z,952.45
2023-05-10T11:48:57.358Z,952.44
2023-05-10T11:51:56.828Z,952.47
2023-05-10T11:54:57.284Z,952.54
2023-05-10T11:57:57.566Z,952.49
2023-05-10T12:00:58.248Z,952.51
2023-05-10T12:03:57.262Z,952.54
2023-05-10T12:06:57.424Z,952.46
2023-05-10T12:09:58.071Z,952.51
2023-05-10T12:12:57.689Z,952.48
2023-05-10T12:15:57.660Z,952.4
2023-05-10T12:18:57.137Z,952.5
2023-05-10T12:21:57.131Z,952.37
2023-05-10T12:24:57.941Z,952.39
2023-05-10T12:27:57.770Z,952.43
2023-05-10T12:30:57.018Z,952.61
2023-05-10T12:33:57.242Z,952.61
2023-05-10T12:36:57.087Z,952.58
2023-05-10T12:39:57.848Z,952.57
2023-05-10T12:42:56.977Z,952.6
2023-05-10T12:45:57.188Z,952.7
2023-05-10T12:49:07.549Z,952.79
2023-05-10T12:51:57.666Z,952.84
2023-05-10T12:54:57.603Z,952.92
2023-05-10T12:57:57.544Z,952.84
2023-05-10T13:00:58.305Z,952.91
2023-05-10T13:03:57.774Z,952.93
2023-05-10T13:06:57.148Z,952.93
2023-05-10T13:09:57.488Z,952.95
2023-05-10T13:12:57.894Z,952.91
2023-05-10T13:15:57.741Z,952.95
2023-05-10T13:18:57.459Z,952.97
2023-05-10T13:21:57.605Z,952.98
2023-05-10T13:24:57.783Z,952.98
2023-05-10T13:27:57.730Z,952.92
2023-05-10T13:30:57.539Z,953.06
2023-05-10T13:33:57.590Z,952.99
2023-05-10T13:36:57.421Z,953.04
2023-05-10T13:39:58.135Z,953.06
2023-05-10T13:42:57.189Z,952.93
2023-05-10T13:45:57.199Z,953.02
2023-05-10T13:48:57.599Z,952.93
2023-05-10T13:51:57.972Z,952.97
2023-05-10T13:54:57.574Z,952.95
2023-05-10T13:57:57.459Z,952.95
2023-05-10T14:00:58.137Z,952.99
2023-05-10T14:03:57.131Z,952.88
2023-05-10T14:06:58.051Z,952.92
2023-05-10T14:09:58.253Z,952.86
2023-05-10T14:12:57.514Z,952.93
2023-05-10T14:15:57.765Z,952.84
2023-05-10T14:18:57.356Z,952.93
2023-05-10T14:21:56.843Z,952.77
2023-05-10T14:24:57.820Z,952.84
2023-05-10T14:27:57.759Z,952.84
2023-05-10T14:30:57.606Z,952.87
2023-05-10T14:33:56.951Z,952.79
2023-05-10T14:36:57.871Z,952.81
2023-05-10T14:39:57.465Z,952.81
2023-05-10T14:42:58.171Z,952.83
2023-05-10T14:45:56.818Z,952.81
2023-05-10T14:48:58.021Z,952.82
2023-05-10T14:51:57.167Z,952.85
2023-05-10T14:54:57.727Z,952.8
2023-05-10T14:57:57.026Z,952.86
2023-05-10T15:00:57.876Z,952.78
2023-05-10T15:03:57.616Z,952.82
2023-05-10T15:06:57.116Z,952.85
2023-05-10T15:09:57.508Z,952.89
2023-05-10T15:12:57.561Z,953.01
2023-05-10T15:15:57.540Z,952.92
2023-05-10T15:18:57.437Z,952.92
2023-05-10T15:21:57.841Z,952.94
2023-05-10T15:24:57.522Z,952.96
2023-05-10T15:27:57.401Z,952.94
2023-05-10T15:30:57.754Z,953.01
2023-05-10T15:33:57.458Z,952.96
2023-05-10T15:36:57.925Z,952.96
2023-05-10T15:39:58.011Z,953.01
2023-05-10T15:42:57.811Z,952.99
2023-05-10T15:45:58.112Z,953.0
2023-05-10T15:48:57.799Z,952.97
2023-05-10T15:51:57.665Z,953.04
2023-05-10T15:54:57.696Z,953.11
2023-05-10T15:57:58.159Z,953.03
2023-05-10T16:00:58.387Z,953.06
2023-05-10T16:03:58.158Z,953.16
2023-05-10T16:06:58.059Z,953.15
2023-05-10T16:09:57.651Z,953.16
2023-05-10T16:12:57.983Z,953.06
2023-05-10T16:15:57.531Z,953.05
2023-05-10T16:18:57.875Z,953.15
2023-05-10T16:21:57.505Z,953.12
2023-05-10T16:24:57.397Z,953.18
2023-05-10T16:27:58.150Z,953.25
2023-05-10T16:30:58.671Z,953.28
2023-05-10T16:33:57.765Z,953.21
2023-05-10T16:36:57.462Z,953.27
2023-05-10T16:39:58.369Z,953.28
2023-05-10T16:42:57.750Z,953.37
2023-05-10T16:45:58.455Z,953.22
2023-05-10T16:48:57.747Z,953.27
2023-05-10T16:51:57.817Z,953.33
2023-05-10T16:54:57.536Z,953.33
2023-05-10T16:57:57.739Z,953.3
2023-05-10T17:00:58.245Z,953.41
2023-05-10T17:03:57.688Z,953.34
2023-05-10T17:06:58.087Z,953.33
2023-05-10T17:09:57.972Z,953.37
2023-05-10T17:12:57.205Z,953.36
2023-05-10T17:15:58.047Z,953.46
2023-05-10T17:18:57.185Z,953.38
2023-05-10T17:21:58.332Z,953.45
2023-05-10T17:24:57.499Z,953.39
2023-05-10T17:27:57.118Z,953.49
2023-05-10T17:30:58.247Z,953.42
2023-05-10T17:33:57.764Z,953.47
2023-05-10T17:36:57.320Z,953.52
2023-05-10T17:39:58.363Z,953.39
2023-05-10T17:42:57.762Z,953.55
2023-05-10T17:45:57.812Z,953.57
2023-05-10T17:48:57.762Z,953.42
2023-05-10T17:51:57.234Z,953.44
2023-05-10T17:54:57.909Z,953.53
2023-05-10T17:57:57.694Z,953.48
2023-05-10T18:00:58.605Z,953.55
2023-05-10T18:03:57.799Z,953.53
2023-05-10T18:06:58.354Z,953.56
2023-05-10T18:09:57.786Z,953.56
2023-05-10T18:12:57.885Z,953.49
2023-05-10T18:15:57.976Z,953.5
2023-05-10T18:18:57.006Z,953.56
2023-05-10T18:21:57.259Z,953.56
2023-05-10T18:24:56.937Z,953.49
2023-05-10T18:27:57.476Z,953.57
2023-05-10T18:30:57.742Z,953.63
2023-05-10T18:33:57.079Z,953.65
2023-05-10T18:36:57.069Z,953.55
2023-05-10T18:39:57.433Z,953.68
2023-05-10T18:42:56.997Z,953.72
2023-05-10T18:45:57.379Z,953.56
2023-05-10T18:48:57.074Z,953.64
2023-05-10T18:51:57.783Z,953.62
2023-05-10T18:54:57.393Z,953.69
2023-05-10T18:57:57.849Z,953.71
2023-05-10T19:01:26.338Z,953.71
2023-05-10T19:03:57.692Z,953.65
2023-05-10T19:06:57.430Z,953.78
2023-05-10T19:09:57.983Z,953.83
2023-05-10T19:12:56.550Z,953.79
2023-05-10T19:15:58.368Z,953.76
2023-05-10T19:18:57.768Z,953.78
2023-05-10T19:21:57.825Z,953.78
2023-05-10T19:24:57.516Z,953.85
2023-05-10T19:27:57.353Z,953.81
2023-05-10T19:30:57.258Z,953.84
2023-05-10T19:34:00.024Z,953.84
2023-05-10T19:36:58.184Z,953.87
2023-05-10T19:39:57.809Z,953.94
2023-05-10T19:42:57.409Z,953.88
2023-05-10T19:45:57.049Z,953.87
2023-05-10T19:48:57.063Z,953.97
2023-05-10T19:51:57.279Z,953.95
2023-05-10T19:54:57.271Z,954.0
2023-05-10T19:57:57.902Z,953.86
2023-05-10T20:00:58.163Z,953.91
2023-05-10T20:03:57.857Z,953.98
2023-05-10T20:06:57.757Z,954.03
2023-05-10T20:09:57.313Z,954.06
2023-05-10T20:12:57.535Z,954.04
2023-05-10T20:15:57.731Z,954.01
2023-05-10T20:18:57.390Z,954.03
2023-05-10T20:21:57.859Z,954.0
2023-05-10T20:24:58.702Z,954.02
2023-05-10T20:27:57.953Z,954.03
2023-05-10T20:30:58.426Z,953.96
2023-05-10T20:33:57.509Z,953.92
2023-05-10T20:36:57.587Z,954.03
2023-05-10T20:39:58.297Z,953.98
2023-05-10T20:42:57.809Z,953.96
2023-05-10T20:45:57.916Z,953.96
2023-05-10T20:48:57.700Z,953.98
2023-05-10T20:51:57.267Z,953.98
2023-05-10T20:54:57.185Z,953.99
2023-05-10T20:57:58.071Z,953.93
2023-05-10T21:00:58.077Z,953.85
2023-05-10T21:03:57.648Z,953.85
2023-05-10T21:06:57.697Z,953.82
2023-05-10T21:09:57.100Z,953.85
2023-05-10T21:12:57.582Z,953.81
2023-05-10T21:15:58.173Z,953.81
2023-05-10T21:18:57.369Z,953.89
2023-05-10T21:21:58.116Z,953.81
2023-05-10T21:24:57.920Z,953.85
2023-05-10T21:27:57.920Z,953.84
2023-05-10T21:30:58.127Z,953.81
2023-05-10T21:33:57.628Z,953.74
2023-05-10T21:36:57.578Z,953.74
2023-05-10T21:39:57.530Z,953.79
2023-05-10T21:42:56.876Z,953.77
2023-05-10T21:45:57.232Z,953.75
2023-05-10T21:48:57.424Z,953.75
2023-05-10T21:51:56.864Z,953.78
2023-05-10T21:54:58.181Z,953.85
2023-05-10T21:57:57.696Z,953.87
2023-05-10T22:00:57.963Z,953.88
2023-05-10T22:03:57.542Z,953.84
2023-05-10T22:06:56.868Z,953.78
2023-05-10T22:09:57.016Z,953.8
2023-05-10T22:12:57.007Z,953.81
2023-05-10T22:15:56.695Z,953.74
2023-05-10T22:18:57.652Z,953.73
2023-05-10T22:21:57.411Z,953.8
2023-05-10T22:24:57.632Z,953.83
2023-05-10T22:27:57.648Z,953.84
2023-05-10T22:30:57.588Z,953.86
2023-05-10T22:33:57.512Z,953.86
2023-05-10T22:36:56.913Z,953.83
2023-05-10T22:39:57.566Z,953.8
2023-05-10T22:42:57.485Z,953.77
2023-05-10T22:45:57.064Z,953.81
2023-05-10T22:48:57.372Z,953.8
2023-05-10T22:51:56.922Z,953.84
2023-05-10T22:54:57.507Z,953.84
2023-05-10T22:57:56.645Z,953.89
2023-05-10T23:00:57.832Z,953.86
2023-05-10T23:03:56.886Z,953.81
2023-05-10T23:06:57.098Z,953.89
2023-05-10T23:09:57.583Z,953.86
2023-05-10T23:12:57.298Z,953.96
2023-05-10T23:15:57.067Z,953.84
2023-05-10T23:18:56.923Z,953.83
2023-05-10T23:21:57.649Z,953.87
2023-05-10T23:24:57.370Z,953.83
2023-05-10T23:27:56.977Z,953.84
2023-05-10T23:30:57.055Z,953.94
2023-05-10T23:36:57.140Z,953.96
2023-05-10T23:39:57.721Z,953.9
2023-05-10T23:42:57.278Z,953.84
2023-05-10T23:45:58.092Z,953.87
2023-05-10T23:48:57.671Z,953.93
2023-05-10T23:51:56.756Z,953.86
2023-05-10T23:54:56.743Z,953.86
2023-05-10T23:57:56.794Z,953.79
